Time;durP1;ratioP1;P1;durP2;ratioP2;P2;SDS_P1;SDS_P2;PMS_P1;PMS_P2;Temp;Humidity;BMP_temperature;BMP_pressure;BME280_temperature;BME280_humidity;BME280_pressure;Samples;Min_cycle;Max_cycle;Signal;HPM_P1;HPM_P2
2022/08/09 00:00:43;;;;;;;;;;;;;;;22.26;56.67;102498.69;1036801;28;696;-67
2022/08/09 00:01:34;;;;;;;;;;;;;;;22.22;56.43;102493.63;1037247;28;654;-67
2022/08/09 00:02:24;;;;;;;;;;;;;;;22.23;56.56;102493.50;1037072;28;670;-67
2022/08/09 00:03:15;;;;;;;;;;;;;;;22.23;56.60;102496.22;1036581;28;686;-67
2022/08/09 00:04:05;;;;;;;;;;;;;;;22.24;56.72;102494.38;1036431;28;670;-67
2022/08/09 00:04:56;;;;;;;;;;;;;;;22.24;56.43;102492.50;1036537;28;760;-67
2022/08/09 00:05:46;;;;;;;;;;;;;;;22.24;56.69;102495.22;1036389;28;654;-67
2022/08/09 00:06:36;;;;;;;;;;;;;;;22.24;56.93;102495.22;1036502;28;670;-67
2022/08/09 00:07:27;;;;;;;;;;;;;;;22.22;56.77;102497.22;1036555;28;633;-67
2022/08/09 00:08:17;;;;;;;;;;;;;;;22.22;56.76;102499.94;1035796;28;1060;-67
2022/08/09 00:09:08;;;;;;;;;;;;;;;22.22;56.50;102493.63;1033544;28;670;-66
2022/08/09 00:09:58;;;;;;;;;;;;;;;22.19;56.67;102497.50;1032938;28;642;-67
2022/08/09 00:10:49;;;;;;;;;;;;;;;22.21;56.90;102495.53;1032411;28;646;-67
2022/08/09 00:11:39;;;;;;;;;;;;;;;22.19;56.60;102496.66;1032319;28;647;-67
2022/08/09 00:12:30;;;;;;;;;;;;;;;22.20;56.64;102499.22;1032346;28;670;-67
2022/08/09 00:13:20;;;;;;;;;;;;;;;22.17;56.57;102500.34;1032444;28;709;-67
2022/08/09 00:14:11;;;;;;;;;;;;;;;22.18;56.86;102493.06;1032443;28;650;-67
2022/08/09 00:15:01;;;;;;;;;;;;;;;22.17;56.78;102494.94;1032673;28;694;-68
2022/08/09 00:15:52;;;;;;;;;;;;;;;22.17;56.58;102496.78;1030937;28;1399;-67
2022/08/09 00:16:42;;;;;;;;;;;;;;;22.16;56.41;102492.34;1028799;28;725;-68
2022/08/09 00:17:33;;;;;;;;;;;;;;;22.15;56.48;102487.91;1028245;28;682;-67
2022/08/09 00:18:23;;;;;;;;;;;;;;;22.16;56.67;102486.91;1028941;28;689;-67
2022/08/09 00:19:14;;;;;;;;;;;;;;;22.16;56.93;102484.19;1029019;28;729;-67
2022/08/09 00:20:04;;;;;;;;;;;;;;;22.16;56.80;102484.19;1028939;28;646;-67
2022/08/09 00:20:55;;;;;;;;;;;;;;;22.15;56.68;102485.19;1028928;28;642;-67
2022/08/09 00:21:45;;;;;;;;;;;;;;;22.17;56.51;102488.63;1028922;28;725;-66
2022/08/09 00:22:36;;;;;;;;;;;;;;;22.14;56.56;102483.47;1029080;28;673;-68
2022/08/09 00:23:26;;;;;;;;;;;;;;;22.16;56.88;102486.91;1025262;28;677;-68
2022/08/09 00:24:17;;;;;;;;;;;;;;;22.12;56.65;102489.03;1025440;28;673;-67
2022/08/09 00:25:07;;;;;;;;;;;;;;;22.11;56.88;102481.03;1029366;28;642;-68
2022/08/09 00:25:58;;;;;;;;;;;;;;;22.12;56.61;102474.59;1025940;28;697;-67
2022/08/09 00:26:48;;;;;;;;;;;;;;;22.12;56.90;102482.75;1025854;28;627;-67
2022/08/09 00:27:39;;;;;;;;;;;;;;;22.12;56.95;102480.03;1029601;28;649;-67
2022/08/09 00:28:29;;;;;;;;;;;;;;;22.11;56.96;102476.44;1029852;28;701;-67
2022/08/09 00:29:20;;;;;;;;;;;;;;;22.13;56.88;102479.03;1025971;28;705;-66
2022/08/09 00:30:10;;;;;;;;;;;;;;;22.10;56.99;102476.59;1026022;28;649;-66
2022/08/09 00:31:01;;;;;;;;;;;;;;;22.09;56.67;102477.56;1025308;28;752;-68
2022/08/09 00:31:52;;;;;;;;;;;;;;;22.10;56.60;102484.72;1026997;28;689;-66
2022/08/09 00:32:42;;;;;;;;;;;;;;;22.08;56.94;102479.44;1025896;28;650;-67
2022/08/09 00:33:34;;;;;;;;;;;;;;;22.10;57.00;102479.28;1029575;28;754;-66
2022/08/09 00:34:25;;;;;;;;;;;;;;;22.09;56.90;102481.16;1029631;28;748;-66
2022/08/09 00:35:15;;;;;;;;;;;;;;;22.10;56.95;102482.00;1029599;28;654;-67
2022/08/09 00:36:05;;;;;;;;;;;;;;;22.10;56.63;102480.16;1029573;28;702;-68
2022/08/09 00:36:56;;;;;;;;;;;;;;;22.09;56.70;102485.72;1029672;28;725;-68
2022/08/09 00:37:46;;;;;;;;;;;;;;;22.09;56.79;102483.00;1029096;28;646;-67
2022/08/09 00:38:38;;;;;;;;;;;;;;;22.06;56.72;102485.97;1029619;28;634;-67
2022/08/09 00:39:28;;;;;;;;;;;;;;;22.04;57.09;102487.97;1029920;28;726;-67
2022/08/09 00:40:19;;;;;;;;;;;;;;;22.05;57.12;102489.69;1029354;28;717;-66
2022/08/09 00:41:09;;;;;;;;;;;;;;;22.05;56.99;102484.25;1029213;28;658;-66
2022/08/09 00:42:00;;;;;;;;;;;;;;;22.03;56.95;102491.72;1029672;28;650;-66
2022/08/09 00:42:50;;;;;;;;;;;;;;;22.02;56.95;102484.56;1029530;28;647;-67
2022/08/09 00:43:43;;;;;;;;;;;;;;;22.03;57.13;102491.72;1029708;28;796;-67
2022/08/09 00:44:33;;;;;;;;;;;;;;;22.02;57.13;102496.28;1025866;28;709;-68
2022/08/09 00:45:24;;;;;;;;;;;;;;;22.02;57.03;102490.00;1025255;28;776;-67
2022/08/09 00:46:15;;;;;;;;;;;;;;;22.01;57.06;102496.41;1029348;28;744;-68
2022/08/09 00:47:05;;;;;;;;;;;;;;;22.02;57.18;102490.84;1029239;28;808;-67
2022/08/09 00:47:55;;;;;;;;;;;;;;;22.00;57.18;102489.25;1029047;28;643;-67
2022/08/09 00:48:46;;;;;;;;;;;;;;;22.00;56.86;102487.41;1029788;28;714;-67
2022/08/09 00:49:37;;;;;;;;;;;;;;;21.97;57.05;102486.78;1029221;28;674;-67
2022/08/09 00:50:28;;;;;;;;;;;;;;;21.98;57.10;102494.78;1025819;28;661;-67
2022/08/09 00:51:18;;;;;;;;;;;;;;;21.98;56.98;102486.63;1025343;28;710;-67
2022/08/09 00:52:09;;;;;;;;;;;;;;;21.98;57.19;102486.63;1028994;28;795;-67
2022/08/09 00:53:00;;;;;;;;;;;;;;;22.00;57.22;102478.41;1029500;28;647;-67
2022/08/09 00:53:50;;;;;;;;;;;;;;;22.00;56.93;102479.25;1029384;28;701;-68
2022/08/09 00:54:40;;;;;;;;;;;;;;;21.99;56.99;102488.38;1029603;28;650;-67
2022/08/09 00:55:31;;;;;;;;;;;;;;;21.98;56.85;102488.50;1029586;28;638;-68
2022/08/09 00:56:22;;;;;;;;;;;;;;;21.96;57.06;102488.63;1029758;28;709;-66
2022/08/09 00:57:12;;;;;;;;;;;;;;;21.95;57.07;102486.91;1029846;28;638;-66
2022/08/09 00:58:03;;;;;;;;;;;;;;;21.95;57.29;102480.59;1029077;28;1894;-66
2022/08/09 00:58:53;;;;;;;;;;;;;;;21.95;56.87;102486.03;1029484;28;634;-67
2022/08/09 00:59:44;;;;;;;;;;;;;;;21.95;56.96;102483.31;1029585;28;678;-66
2022/08/09 01:00:34;;;;;;;;;;;;;;;21.94;57.14;102487.03;1029739;28;693;-68
2022/08/09 01:01:25;;;;;;;;;;;;;;;21.93;57.21;102488.03;1026285;28;619;-68
2022/08/09 01:02:15;;;;;;;;;;;;;;;21.94;57.09;102484.31;1025106;28;651;-66
2022/08/09 01:03:06;;;;;;;;;;;;;;;21.92;57.09;102491.72;1029368;28;784;-65
2022/08/09 01:03:56;;;;;;;;;;;;;;;21.91;57.30;102482.72;1029583;28;764;-67
2022/08/09 01:04:47;;;;;;;;;;;;;;;21.92;57.23;102486.31;1029047;28;662;-67
2022/08/09 01:05:38;;;;;;;;;;;;;;;21.92;57.28;102489.00;1029823;28;638;-67
2022/08/09 01:06:28;;;;;;;;;;;;;;;21.92;57.28;102489.00;1028686;28;646;-67
2022/08/09 01:07:19;;;;;;;;;;;;;;;21.91;57.37;102488.16;1029137;28;662;-67
2022/08/09 01:08:10;;;;;;;;;;;;;;;21.90;57.39;102488.28;1029950;28;729;-68
2022/08/09 01:09:00;;;;;;;;;;;;;;;21.90;57.09;102482.84;1025227;28;718;-69
2022/08/09 01:09:52;;;;;;;;;;;;;;;21.90;56.99;102485.56;1025601;28;655;-68
2022/08/09 01:10:43;;;;;;;;;;;;;;;21.91;57.16;102487.28;1024423;29;658;-68
2022/08/09 01:11:33;;;;;;;;;;;;;;;21.90;57.17;102485.56;1026648;28;653;-68
2022/08/09 01:12:24;;;;;;;;;;;;;;;21.90;57.31;102485.56;1028739;28;718;-68
2022/08/09 01:13:14;;;;;;;;;;;;;;;21.89;57.24;102484.72;1029802;28;691;-68
2022/08/09 01:14:05;;;;;;;;;;;;;;;21.88;57.37;102485.69;1025120;29;689;-68
2022/08/09 01:14:55;;;;;;;;;;;;;;;21.88;57.39;102487.56;1026493;28;655;-68
2022/08/09 01:15:46;;;;;;;;;;;;;;;21.88;57.33;102484.84;1025177;28;1214;-68
2022/08/09 01:16:37;;;;;;;;;;;;;;;21.88;57.05;102482.13;1033216;28;677;-68
2022/08/09 01:17:27;;;;;;;;;;;;;;;21.88;57.19;102484.84;1032514;28;689;-68
2022/08/09 01:18:17;;;;;;;;;;;;;;;21.85;57.49;102488.72;1032389;28;1903;-66
2022/08/09 01:19:08;;;;;;;;;;;;;;;21.83;57.27;102488.84;1032448;28;657;-68
2022/08/09 01:19:59;;;;;;;;;;;;;;;21.85;57.20;102482.41;1033453;28;610;-68
2022/08/09 01:20:50;;;;;;;;;;;;;;;21.86;57.45;102481.41;1033176;28;683;-68
2022/08/09 01:21:40;;;;;;;;;;;;;;;21.84;57.23;102478.84;1033134;28;745;-67
2022/08/09 01:22:31;;;;;;;;;;;;;;;21.86;57.39;102486.81;1032401;28;643;-68
2022/08/09 01:23:21;;;;;;;;;;;;;;;21.84;57.27;102478.84;1032258;28;626;-68
2022/08/09 01:24:12;;;;;;;;;;;;;;;21.84;57.29;102484.28;1033422;28;713;-66
2022/08/09 01:25:02;;;;;;;;;;;;;;;21.84;57.27;102484.28;1032238;28;778;-67
2022/08/09 01:25:52;;;;;;;;;;;;;;;21.83;57.42;102487.97;1032357;28;643;-67
2022/08/09 01:26:43;;;;;;;;;;;;;;;21.81;57.26;102482.69;1033208;28;697;-66
2022/08/09 01:27:33;;;;;;;;;;;;;;;21.83;57.31;102483.41;1032579;28;634;-68
2022/08/09 01:28:24;;;;;;;;;;;;;;;21.82;57.49;102484.41;1032602;28;721;-69
2022/08/09 01:29:14;;;;;;;;;;;;;;;21.81;57.42;102482.69;1033388;28;654;-68
2022/08/09 01:30:05;;;;;;;;;;;;;;;21.79;57.44;102492.81;1032393;28;627;-66
2022/08/09 01:30:55;;;;;;;;;;;;;;;21.79;57.25;102478.38;1032158;28;777;-67
2022/08/09 01:31:46;;;;;;;;;;;;;;;21.80;57.45;102490.94;1032280;28;635;-66
2022/08/09 01:32:36;;;;;;;;;;;;;;;21.79;57.16;102490.09;1033462;28;709;-67
2022/08/09 01:33:26;;;;;;;;;;;;;;;21.80;57.32;102486.38;1032347;28;639;-68
2022/08/09 01:34:17;;;;;;;;;;;;;;;21.80;57.19;102489.09;1032587;28;662;-68
2022/08/09 01:35:07;;;;;;;;;;;;;;;21.79;57.42;102492.81;1032306;28;646;-69
2022/08/09 01:35:58;;;;;;;;;;;;;;;21.77;57.51;102493.94;1032403;28;745;-68
2022/08/09 01:36:48;;;;;;;;;;;;;;;21.76;57.42;102495.78;1032316;28;682;-68
2022/08/09 01:37:39;;;;;;;;;;;;;;;21.77;57.61;102492.06;1032271;28;714;-68
2022/08/09 01:38:29;;;;;;;;;;;;;;;21.76;57.48;102493.06;1032500;28;654;-68
2022/08/09 01:39:19;;;;;;;;;;;;;;;21.78;57.48;102499.22;1032313;28;639;-67
2022/08/09 01:40:10;;;;;;;;;;;;;;;21.78;57.19;102496.50;1032545;28;677;-67
2022/08/09 01:41:00;;;;;;;;;;;;;;;21.75;57.39;102488.63;1033122;28;631;-67
2022/08/09 01:41:51;;;;;;;;;;;;;;;21.77;57.59;102492.06;1032494;28;678;-68
2022/08/09 01:42:41;;;;;;;;;;;;;;;21.76;57.58;102500.34;1032347;28;671;-68
2022/08/09 01:43:32;;;;;;;;;;;;;;;21.73;57.51;102492.47;1032351;28;659;-67
2022/08/09 01:44:22;;;;;;;;;;;;;;;21.75;57.46;102495.91;1032780;28;693;-67
2022/08/09 01:45:12;;;;;;;;;;;;;;;21.72;57.39;102494.31;1032317;28;615;-67
2022/08/09 01:46:03;;;;;;;;;;;;;;;21.73;57.62;102495.19;1033047;28;677;-66
2022/08/09 01:46:53;;;;;;;;;;;;;;;21.72;57.72;102493.44;1032586;28;623;-66
2022/08/09 01:47:44;;;;;;;;;;;;;;;21.71;57.86;102499.88;1032362;28;710;-66
2022/08/09 01:48:34;;;;;;;;;;;;;;;21.71;57.64;102498.03;1033091;28;689;-66
2022/08/09 01:49:25;;;;;;;;;;;;;;;21.71;57.58;102492.59;1029667;28;705;-67
2022/08/09 01:50:15;;;;;;;;;;;;;;;21.71;57.36;102492.59;1029195;28;739;-66
2022/08/09 01:51:06;;;;;;;;;;;;;;;21.72;57.72;102494.31;1029735;28;677;-66
2022/08/09 01:51:56;;;;;;;;;;;;;;;21.73;57.61;102498.75;1033282;28;713;-66
2022/08/09 01:52:47;;;;;;;;;;;;;;;21.71;57.63;102489.88;1032792;28;717;-66
2022/08/09 01:53:37;;;;;;;;;;;;;;;21.70;57.64;102499.00;1032735;28;773;-67
2022/08/09 01:54:28;;;;;;;;;;;;;;;21.69;57.54;102489.16;1032311;28;674;-67
2022/08/09 01:55:18;;;;;;;;;;;;;;;21.69;57.54;102489.16;1032415;28;635;-66
2022/08/09 01:56:08;;;;;;;;;;;;;;;21.68;57.72;102484.72;1033040;28;638;-66
2022/08/09 01:56:59;;;;;;;;;;;;;;;21.67;57.55;102485.72;1032548;28;677;-66
2022/08/09 01:57:50;;;;;;;;;;;;;;;21.68;57.82;102487.41;1032496;28;654;-67
2022/08/09 01:58:40;;;;;;;;;;;;;;;21.68;57.91;102489.28;1032675;28;759;-66
2022/08/09 01:59:31;;;;;;;;;;;;;;;21.67;57.66;102485.72;1033360;28;606;-66
2022/08/09 02:00:21;;;;;;;;;;;;;;;21.68;57.53;102484.72;1032626;28;678;-67
2022/08/09 02:01:11;;;;;;;;;;;;;;;21.67;57.85;102482.16;1032232;28;651;-66
2022/08/09 02:02:02;;;;;;;;;;;;;;;21.65;57.56;102495.84;1033249;28;689;-66
2022/08/09 02:02:52;;;;;;;;;;;;;;;21.66;57.70;102486.72;1032977;28;665;-66
2022/08/09 02:03:43;;;;;;;;;;;;;;;21.64;57.62;102490.56;1032500;28;677;-66
2022/08/09 02:04:33;;;;;;;;;;;;;;;21.66;57.64;102485.84;1031773;28;681;-66
2022/08/09 02:05:24;;;;;;;;;;;;;;;21.62;57.94;102482.53;1032268;28;691;-66
2022/08/09 02:06:14;;;;;;;;;;;;;;;21.62;57.86;102482.53;1032827;28;681;-66
2022/08/09 02:07:07;;;;;;;;;;;;;;;21.62;57.99;102482.53;1033197;28;654;-68
2022/08/09 02:07:58;;;;;;;;;;;;;;;21.62;57.63;102487.09;1032267;28;655;-67
2022/08/09 02:08:48;;;;;;;;;;;;;;;21.61;57.90;102488.97;1034496;28;1356;-67
2022/08/09 02:09:39;;;;;;;;;;;;;;;21.59;57.86;102492.78;1036977;28;697;-67
2022/08/09 02:10:29;;;;;;;;;;;;;;;21.61;57.83;102491.66;1035821;28;709;-67
2022/08/09 02:11:20;;;;;;;;;;;;;;;21.61;57.78;102485.38;1037010;28;627;-67
2022/08/09 02:12:10;;;;;;;;;;;;;;;21.57;57.86;102494.78;1032584;28;819;-67
2022/08/09 02:13:00;;;;;;;;;;;;;;;21.59;57.64;102493.66;1033512;28;859;-67
2022/08/09 02:13:51;;;;;;;;;;;;;;;21.60;57.75;102489.09;1036521;28;659;-68
2022/08/09 02:14:41;;;;;;;;;;;;;;;21.60;57.94;102492.66;1037086;28;713;-67
2022/08/09 02:15:32;;;;;;;;;;;;;;;21.60;57.85;102500.81;1037268;28;657;-67
2022/08/09 02:16:22;;;;;;;;;;;;;;;21.60;57.75;102489.09;1029706;28;665;-67
2022/08/09 02:17:13;;;;;;;;;;;;;;;21.60;57.93;102486.38;1029683;28;688;-67
2022/08/09 02:18:03;;;;;;;;;;;;;;;21.60;57.72;102489.09;1029659;28;1907;-67
2022/08/09 02:18:54;;;;;;;;;;;;;;;21.59;57.83;102490.06;1029358;28;693;-67
2022/08/09 02:19:44;;;;;;;;;;;;;;;21.58;57.78;102485.63;1029785;28;712;-67
2022/08/09 02:20:35;;;;;;;;;;;;;;;21.59;57.99;102490.06;1033594;28;634;-67
2022/08/09 02:21:25;;;;;;;;;;;;;;;21.56;58.06;102495.75;1034097;28;677;-67
2022/08/09 02:22:16;;;;;;;;;;;;;;;21.56;57.84;102493.03;1030422;28;633;-67
2022/08/09 02:23:06;;;;;;;;;;;;;;;21.57;57.95;102494.78;1029728;28;732;-67
2022/08/09 02:23:56;;;;;;;;;;;;;;;21.55;57.96;102500.31;1029826;28;658;-67
2022/08/09 02:24:47;;;;;;;;;;;;;;;21.55;57.83;102497.59;1029767;28;685;-67
2022/08/09 02:25:37;;;;;;;;;;;;;;;21.53;57.82;102496.88;1029833;28;555;-66
2022/08/09 02:26:28;;;;;;;;;;;;;;;21.55;57.78;102499.47;1029847;28;725;-66
2022/08/09 02:27:18;;;;;;;;;;;;;;;21.54;57.68;102495.88;1029790;28;649;-67
2022/08/09 02:28:10;;;;;;;;;;;;;;;21.52;57.98;102497.00;1029841;28;756;-66
2022/08/09 02:29:00;;;;;;;;;;;;;;;21.53;57.84;102493.31;1029806;28;637;-66
2022/08/09 02:29:51;;;;;;;;;;;;;;;21.51;58.11;102495.28;1029705;28;654;-66
2022/08/09 02:30:41;;;;;;;;;;;;;;;21.50;57.94;102499.84;1029735;28;665;-66
2022/08/09 02:31:31;;;;;;;;;;;;;;;21.50;58.13;102494.41;1029740;28;642;-66
2022/08/09 02:32:22;;;;;;;;;;;;;;;21.51;58.09;102496.16;1029728;28;694;-66
2022/08/09 02:33:12;;;;;;;;;;;;;;;21.46;58.21;102492.97;1029755;28;658;-66
2022/08/09 02:34:03;;;;;;;;;;;;;;;21.46;58.13;102492.97;1029578;28;729;-66
2022/08/09 02:34:53;;;;;;;;;;;;;;;21.48;58.08;102491.00;1029798;28;752;-66
2022/08/09 02:35:44;;;;;;;;;;;;;;;21.51;57.90;102489.84;1029806;28;696;-66
2022/08/09 02:36:34;;;;;;;;;;;;;;;21.47;57.97;102490.16;1029787;28;756;-66
2022/08/09 02:37:25;;;;;;;;;;;;;;;21.47;57.99;102489.28;1029696;28;681;-66
2022/08/09 02:38:15;;;;;;;;;;;;;;;21.47;58.45;102483.84;1029530;28;1957;-66
2022/08/09 02:39:06;;;;;;;;;;;;;;;21.49;57.87;102495.44;1029791;28;693;-67
2022/08/09 02:39:56;;;;;;;;;;;;;;;21.48;57.97;102485.59;1033530;28;622;-66
2022/08/09 02:40:47;;;;;;;;;;;;;;;21.49;57.87;102487.31;1034642;28;672;-66
2022/08/09 02:41:37;;;;;;;;;;;;;;;21.46;58.03;102485.72;1030290;28;657;-66
2022/08/09 02:42:27;;;;;;;;;;;;;;;21.45;57.97;102485.84;1029628;28;646;-66
2022/08/09 02:43:18;;;;;;;;;;;;;;;21.44;58.02;102490.41;1029666;28;658;-66
2022/08/09 02:44:08;;;;;;;;;;;;;;;21.42;58.01;102488.81;1033498;28;689;-66
2022/08/09 02:44:59;;;;;;;;;;;;;;;21.40;58.27;102483.50;1033969;28;653;-66
2022/08/09 02:45:49;;;;;;;;;;;;;;;21.40;58.34;102488.06;1031092;28;638;-68
2022/08/09 02:46:40;;;;;;;;;;;;;;;21.41;58.14;102481.66;1029480;28;744;-67
2022/08/09 02:47:30;;;;;;;;;;;;;;;21.38;58.06;102479.19;1029799;28;859;-66
2022/08/09 02:48:21;;;;;;;;;;;;;;;21.36;58.23;102482.03;1029214;28;653;-66
2022/08/09 02:49:11;;;;;;;;;;;;;;;21.41;58.17;102487.09;1029590;28;650;-65
2022/08/09 02:50:01;;;;;;;;;;;;;;;21.41;57.91;102479.81;1033451;28;630;-66
2022/08/09 02:50:52;;;;;;;;;;;;;;;21.41;58.21;102484.38;1034430;28;685;-66
2022/08/09 02:51:42;;;;;;;;;;;;;;;21.41;58.18;102496.06;1031083;28;665;-66
2022/08/09 02:52:33;;;;;;;;;;;;;;;21.41;58.04;102484.38;1033365;28;621;-66
2022/08/09 02:53:23;;;;;;;;;;;;;;;21.41;58.01;102487.09;1034037;28;639;-65
2022/08/09 02:54:14;;;;;;;;;;;;;;;21.39;58.25;102481.78;1029902;28;744;-65
2022/08/09 02:55:04;;;;;;;;;;;;;;;21.37;58.13;102483.75;1029360;28;647;-66
2022/08/09 02:55:55;;;;;;;;;;;;;;;21.37;58.35;102477.47;1029665;28;677;-66
2022/08/09 02:56:45;;;;;;;;;;;;;;;21.33;58.27;102473.28;1029679;28;681;-66
2022/08/09 02:57:36;;;;;;;;;;;;;;;21.34;58.13;102477.72;1033372;28;669;-66
2022/08/09 02:58:26;;;;;;;;;;;;;;;21.36;58.19;102478.47;1033972;28;1886;-67
2022/08/09 02:59:17;;;;;;;;;;;;;;;21.34;58.30;102477.72;1030723;28;646;-66
2022/08/09 03:00:10;;;;;;;;;;;;;;;21.34;58.29;102472.31;1029785;28;626;-66
2022/08/09 03:01:01;;;;;;;;;;;;;;;21.36;58.35;102471.19;1029591;28;646;-66
2022/08/09 03:01:51;;;;;;;;;;;;;;;21.35;58.18;102474.03;1029727;28;635;-66
2022/08/09 03:02:42;;;;;;;;;;;;;;;21.36;58.28;102470.31;1029173;28;638;-66
2022/08/09 03:03:32;;;;;;;;;;;;;;;21.37;58.37;102472.06;1029553;28;705;-66
2022/08/09 03:04:22;;;;;;;;;;;;;;;21.33;58.38;102471.44;1029056;28;698;-66
2022/08/09 03:05:13;;;;;;;;;;;;;;;21.34;58.06;102467.75;1029556;28;670;-67
2022/08/09 03:06:04;;;;;;;;;;;;;;;21.35;58.36;102468.59;1029682;28;860;-67
2022/08/09 03:06:55;;;;;;;;;;;;;;;21.34;58.29;102470.44;1029622;28;662;-67
2022/08/09 03:07:45;;;;;;;;;;;;;;;21.36;58.24;102470.31;1029668;28;677;-66
2022/08/09 03:08:38;;;;;;;;;;;;;;;21.35;58.22;102464.03;1029430;28;1128;-66
2022/08/09 03:09:28;;;;;;;;;;;;;;;21.34;58.30;102461.47;1029481;28;646;-66
2022/08/09 03:10:19;;;;;;;;;;;;;;;21.33;58.40;102466.00;1029633;28;623;-67
2022/08/09 03:11:09;;;;;;;;;;;;;;;21.33;58.33;102465.16;1029178;28;682;-66
2022/08/09 03:12:00;;;;;;;;;;;;;;;21.33;58.32;102459.72;1029669;28;650;-66
2022/08/09 03:12:50;;;;;;;;;;;;;;;21.34;58.27;102464.16;1029700;28;650;-66
2022/08/09 03:13:41;;;;;;;;;;;;;;;21.30;58.26;102457.31;1029583;28;713;-66
2022/08/09 03:14:31;;;;;;;;;;;;;;;21.28;58.27;102462.00;1029627;28;697;-66
2022/08/09 03:15:22;;;;;;;;;;;;;;;21.28;58.54;102462.00;1029551;28;649;-66
2022/08/09 03:16:12;;;;;;;;;;;;;;;21.29;58.33;102463.72;1033493;28;1277;-66
2022/08/09 03:17:03;;;;;;;;;;;;;;;21.28;58.05;102462.00;1032582;28;614;-66
2022/08/09 03:17:53;;;;;;;;;;;;;;;21.28;58.36;102467.41;1033104;28;697;-66
2022/08/09 03:18:43;;;;;;;;;;;;;;;21.27;58.43;102463.84;1033011;28;646;-66
2022/08/09 03:19:34;;;;;;;;;;;;;;;21.28;58.33;102471.00;1032815;28;634;-66
2022/08/09 03:20:24;;;;;;;;;;;;;;;21.28;58.55;102464.72;1032226;28;630;-67
2022/08/09 03:21:15;;;;;;;;;;;;;;;21.28;58.44;102467.41;1032574;28;740;-67
2022/08/09 03:22:05;;;;;;;;;;;;;;;21.31;58.44;102469.88;1033070;28;642;-67
2022/08/09 03:22:56;;;;;;;;;;;;;;;21.30;58.25;102470.88;1033191;28;696;-67
2022/08/09 03:23:46;;;;;;;;;;;;;;;21.26;58.51;102472.09;1033120;28;642;-67
2022/08/09 03:24:37;;;;;;;;;;;;;;;21.26;58.49;102466.69;1033072;28;639;-68
2022/08/09 03:25:27;;;;;;;;;;;;;;;21.29;58.16;102464.59;1033103;28;709;-67
2022/08/09 03:26:18;;;;;;;;;;;;;;;21.29;58.08;102470.00;1033022;28;638;-67
2022/08/09 03:27:08;;;;;;;;;;;;;;;21.29;58.34;102467.28;1033021;28;741;-67
2022/08/09 03:27:58;;;;;;;;;;;;;;;21.28;58.35;102459.28;1033044;28;681;-67
2022/08/09 03:28:49;;;;;;;;;;;;;;;21.29;58.36;102463.72;1033056;28;697;-67
2022/08/09 03:29:39;;;;;;;;;;;;;;;21.24;58.45;102466.81;1033173;28;666;-67
2022/08/09 03:30:30;;;;;;;;;;;;;;;21.26;58.55;102469.41;1032638;28;657;-67
2022/08/09 03:31:20;;;;;;;;;;;;;;;21.24;58.34;102466.81;1032111;28;646;-67
2022/08/09 03:32:11;;;;;;;;;;;;;;;21.23;58.45;102461.50;1032380;28;881;-66
2022/08/09 03:33:01;;;;;;;;;;;;;;;21.24;58.42;102465.94;1033135;28;717;-67
2022/08/09 03:33:51;;;;;;;;;;;;;;;21.24;58.39;102465.94;1033034;28;622;-66
2022/08/09 03:34:42;;;;;;;;;;;;;;;21.24;58.45;102463.25;1032996;28;741;-67
2022/08/09 03:35:32;;;;;;;;;;;;;;;21.24;58.36;102464.09;1032950;28;630;-67
2022/08/09 03:36:23;;;;;;;;;;;;;;;21.23;58.53;102475.94;1032939;28;630;-66
2022/08/09 03:37:13;;;;;;;;;;;;;;;21.21;58.36;102471.63;1033059;28;646;-67
2022/08/09 03:38:04;;;;;;;;;;;;;;;21.20;58.50;102469.91;1032687;28;1898;-67
2022/08/09 03:38:54;;;;;;;;;;;;;;;21.17;58.50;102470.13;1032237;28;670;-67
2022/08/09 03:39:45;;;;;;;;;;;;;;;21.13;58.64;102470.41;1033025;28;681;-66
2022/08/09 03:40:35;;;;;;;;;;;;;;;21.14;58.73;102472.09;1033014;28;631;-67
2022/08/09 03:41:26;;;;;;;;;;;;;;;21.18;58.84;102471.84;1032956;28;657;-67
2022/08/09 03:42:16;;;;;;;;;;;;;;;21.23;58.39;102475.94;1033025;28;654;-68
2022/08/09 03:43:06;;;;;;;;;;;;;;;21.22;58.59;102479.63;1033101;28;717;-67
2022/08/09 03:43:57;;;;;;;;;;;;;;;21.21;58.40;102486.03;1033118;28;724;-67
2022/08/09 03:44:47;;;;;;;;;;;;;;;21.22;58.55;102484.19;1032997;28;659;-67
2022/08/09 03:45:38;;;;;;;;;;;;;;;21.22;58.36;102486.91;1033058;28;607;-67
2022/08/09 03:46:28;;;;;;;;;;;;;;;21.17;58.55;102480.97;1032706;28;670;-67
2022/08/09 03:47:18;;;;;;;;;;;;;;;21.17;58.55;102486.38;1032197;28;674;-67
2022/08/09 03:48:09;;;;;;;;;;;;;;;21.14;58.52;102485.66;1032485;28;725;-67
2022/08/09 03:48:59;;;;;;;;;;;;;;;21.17;58.63;102483.69;1032985;28;847;-67
2022/08/09 03:49:50;;;;;;;;;;;;;;;21.19;58.67;102487.13;1033017;28;676;-67
2022/08/09 03:50:40;;;;;;;;;;;;;;;21.18;58.65;102482.69;1032981;28;713;-67
2022/08/09 03:51:31;;;;;;;;;;;;;;;21.18;58.81;102479.97;1032910;28;626;-67
2022/08/09 03:52:21;;;;;;;;;;;;;;;21.17;58.57;102476.41;1032982;28;645;-67
2022/08/09 03:53:11;;;;;;;;;;;;;;;21.17;58.55;102484.53;1032910;28;646;-67
2022/08/09 03:54:02;;;;;;;;;;;;;;;21.13;58.65;102478.53;1033078;28;653;-67
2022/08/09 03:54:52;;;;;;;;;;;;;;;21.10;58.90;102486.91;1033037;28;716;-67
2022/08/09 03:55:43;;;;;;;;;;;;;;;21.08;58.85;102482.63;1033051;28;638;-67
2022/08/09 03:56:33;;;;;;;;;;;;;;;21.06;58.98;102480.03;1032943;28;786;-66
2022/08/09 03:57:24;;;;;;;;;;;;;;;21.12;58.54;102484.09;1032867;28;686;-66
2022/08/09 03:58:14;;;;;;;;;;;;;;;21.15;58.42;102490.09;1033004;28;1954;-67
2022/08/09 03:59:04;;;;;;;;;;;;;;;21.14;58.61;102493.78;1033894;28;682;-67
2022/08/09 03:59:55;;;;;;;;;;;;;;;21.17;58.70;102492.69;1033900;28;782;-67
2022/08/09 04:00:45;;;;;;;;;;;;;;;21.19;58.40;102495.25;1032105;28;658;-67
2022/08/09 04:01:36;;;;;;;;;;;;;;;21.14;58.59;102488.38;1033714;28;713;-67
2022/08/09 04:02:26;;;;;;;;;;;;;;;21.12;58.39;102490.38;1033758;28;638;-67
2022/08/09 04:03:17;;;;;;;;;;;;;;;21.13;58.50;102493.94;1033850;28;640;-67
2022/08/09 04:04:07;;;;;;;;;;;;;;;21.15;58.39;102497.34;1033579;28;676;-67
2022/08/09 04:04:57;;;;;;;;;;;;;;;21.13;58.68;102488.53;1032978;28;720;-67
2022/08/09 04:05:48;;;;;;;;;;;;;;;21.10;58.53;102496.91;1033783;28;657;-67
2022/08/09 04:06:38;;;;;;;;;;;;;;;21.10;58.63;102489.63;1033811;28;691;-66
2022/08/09 04:07:29;;;;;;;;;;;;;;;21.12;58.81;102494.94;1033847;28;720;-66
2022/08/09 04:08:19;;;;;;;;;;;;;;;21.13;58.60;102492.09;1033809;28;661;-66
2022/08/09 04:09:09;;;;;;;;;;;;;;;21.06;58.83;102499.00;1033752;28;767;-66
2022/08/09 04:10:00;;;;;;;;;;;;;;;21.08;58.50;102494.31;1033902;28;708;-66
2022/08/09 04:10:51;;;;;;;;;;;;;;;21.06;58.81;102503.56;1033720;28;630;-66
2022/08/09 04:11:41;;;;;;;;;;;;;;;21.04;58.68;102509.09;1033734;28;712;-66
2022/08/09 04:12:31;;;;;;;;;;;;;;;21.07;58.82;102503.44;1033734;28;688;-66
2022/08/09 04:13:22;;;;;;;;;;;;;;;21.09;58.50;102506.88;1033747;28;705;-66
2022/08/09 04:14:12;;;;;;;;;;;;;;;21.10;58.35;102505.91;1032802;28;759;-66
2022/08/09 04:15:03;;;;;;;;;;;;;;;21.11;58.77;102506.75;1032476;28;614;-66
2022/08/09 04:15:53;;;;;;;;;;;;;;;21.09;58.70;102514.16;1034593;28;1221;-66
2022/08/09 04:16:44;;;;;;;;;;;;;;;21.08;58.98;102509.72;1037235;28;626;-65
2022/08/09 04:17:34;;;;;;;;;;;;;;;21.04;58.67;102498.28;1036177;28;670;-65
2022/08/09 04:18:24;;;;;;;;;;;;;;;21.02;58.93;102511.09;1037044;28;1906;-65
2022/08/09 04:19:15;;;;;;;;;;;;;;;21.00;58.71;102521.19;1037298;28;744;-67
2022/08/09 04:20:05;;;;;;;;;;;;;;;21.01;59.02;102512.06;1037242;28;721;-67
2022/08/09 04:20:56;;;;;;;;;;;;;;;20.97;59.07;102518.72;1036348;28;658;-67
2022/08/09 04:21:46;;;;;;;;;;;;;;;21.01;59.07;102514.78;1037492;28;689;-65
2022/08/09 04:22:36;;;;;;;;;;;;;;;21.03;58.88;102510.09;1037639;28;630;-66
2022/08/09 04:23:27;;;;;;;;;;;;;;;21.05;58.58;102513.53;1037246;28;598;-67
2022/08/09 04:24:17;;;;;;;;;;;;;;;21.06;58.83;102512.56;1037156;28;674;-67
2022/08/09 04:25:08;;;;;;;;;;;;;;;21.09;58.60;102509.59;1037305;28;688;-67
2022/08/09 04:25:58;;;;;;;;;;;;;;;21.06;58.79;102515.28;1037280;28;693;-65
2022/08/09 04:26:49;;;;;;;;;;;;;;;21.04;58.92;102509.09;1035951;28;643;-66